Alice Town, Bahamas

7:46 AM EST on November 26, 2014 (GMT -0500)
IBIMINIA2 | Change Station
CLOSE
Current Station
Personal Weather Station
Location: Alice Town, BIMINI
Elevation: 0 ft
Nearby Weather Stations

Elev 0 ft 25.73 °N, 79.30 °W | Updated 4 minutes ago

Mostly Cloudy
Mostly Cloudy
80.6 °F
Feels Like 88 °F
N
0.0
Wind Variable Wind from SW

Today
High -- | Low -- °F
--% Chance of Precip.
Yesterday
High -- | Low -- °F
Precip. -- in
6:43 AM 5:25 PM
Waxing Crescent, 19% visible
Pressure 29.97 in
Visibility 10.0 miles
Clouds Few 3000 ft
Mostly Cloudy 6000 ft
Mostly Cloudy 10000 ft
Mostly Cloudy 25000 ft
Heat Index 88 °F
Dew Point 78 °F
Humidity 91%
Rainfall 0.00 in
Snow Depth Not available.
UV 0 out of 12
Pollen Not available.
Air Quality Not available.
Flu Activity Not available.
METAR KFLL 261153Z COR 20006KT 10SM FEW030 BKN060 BKN100 BKN250 26/24 A2997 RMK AO2 CB DSNT NW SLP147 60000 T02610239 10272 20256 53016

More Conditions Fewer Conditions

Pressure 29.97 in
Visibility 10.0 miles
Clouds Few 3000 ft
Mostly Cloudy 6000 ft
Mostly Cloudy 10000 ft
Mostly Cloudy 25000 ft
Heat Index 88 °F
Dew Point 78 °F
Humidity 91%
Rainfall 0.00 in
Snow Depth Not available.
UV 0 out of 12
Pollen Not available.
Air Quality Not available.
Flu Activity Not available.
METAR KFLL 261153Z COR 20006KT 10SM FEW030 BKN060 BKN100 BKN250 26/24 A2997 RMK AO2 CB DSNT NW SLP147 60000 T02610239 10272 20256 53016

More Conditions Fewer Conditions

10-Day Weather Forecast

Almanac

Astronomy

Nov. 26, 2014 Rise Set
Actual Time
Civil Twilight
Nautical Twilight
Astronomical Twilight
Moon
Length of Visible Light
Length of Day
Tomorrow will be .
, % of the Moon is Illuminated

Today's Extremes

Country Highs Country Lows

Community

WunderPhotos

Upload Photos

1,773,715 photos uploaded!

WunderBlogs® & News

Nearby

Air Quality

  Air Quality AQ Index Pollutant
Not available.

Snow Depth

Station Depth Elevation

Earthquake Activity

City Distance Mag. Time & Date
Minimum magnitude displayed is 2.5.

Coastal Water Temperatures

Place Temperature

Nearby Weather Stations